Time;durP1;ratioP1;P1;durP2;ratioP2;P2;SDS_P1;SDS_P2;PMS_P1;PMS_P2;Temp;Humidity;BMP_temperature;BMP_pressure;BME280_temperature;BME280_humidity;BME280_pressure;Samples;Min_cycle;Max_cycle;Signal;HPM_P1;HPM_P2
2023/05/23 00:00:50;;;;;;;;;39.60;30.80;;;;;;;;1994248;28;3614763;-72
2023/05/23 00:02:01;;;;;;;;;36.00;30.00;;;;;;;;1977492;28;2864883;-72
2023/05/23 00:03:13;;;;;;;;;31.60;28.00;;;;;;;;1997564;28;3601237;-72
2023/05/23 00:04:25;;;;;;;;;28.20;27.20;;;;;;;;2003596;28;3596025;-72
2023/05/23 00:05:37;;;;;;;;;33.40;25.60;;;;;;;;1981357;28;3601686;-72
2023/05/23 00:06:49;;;;;;;;;38.40;31.80;;;;;;;;2002260;28;3586647;-72
2023/05/23 00:08:01;;;;;;;;;32.80;31.00;;;;;;;;1987887;28;3590834;-72
2023/05/23 00:09:13;;;;;;;;;37.80;30.20;;;;;;;;1997470;28;3613730;-72
2023/05/23 00:10:25;;;;;;;;;38.00;30.67;;;;;;;;1985278;28;3615923;-72
2023/05/23 00:11:36;;;;;;;;;35.60;28.80;;;;;;;;1991998;28;3613733;-72
2023/05/23 00:12:47;;;;;;;;;26.60;23.80;;;;;;;;1976936;28;2846149;-72
2023/05/23 00:14:01;;;;;;;;;29.20;27.00;;;;;;;;1998377;28;3590809;-72
2023/05/23 00:15:12;;;;;;;;;40.00;31.33;;;;;;;;1999620;28;3605395;-72
2023/05/23 00:16:24;;;;;;;;;33.00;28.60;;;;;;;;1997899;28;3587743;-72
2023/05/23 00:17:38;;;;;;;;;40.00;32.50;;;;;;;;1988452;28;3599147;-72
2023/05/23 00:18:49;;;;;;;;;30.00;27.50;;;;;;;;1999293;28;2856510;-72
2023/05/23 00:20:00;;;;;;;;;37.00;29.00;;;;;;;;1988598;28;3628304;-72
2023/05/23 00:21:12;;;;;;;;;34.00;27.40;;;;;;;;1995026;28;3603903;-72
2023/05/23 00:22:26;;;;;;;;;31.38;27.13;;;;;;;;1990686;28;3586734;-72
2023/05/23 00:23:37;;;;;;;;;32.50;25.00;;;;;;;;1996217;28;2506519;-72
2023/05/23 00:24:48;;;;;;;;;26.20;25.20;;;;;;;;1981006;28;3573488;-72
2023/05/23 00:26:02;;;;;;;;;31.88;25.63;;;;;;;;2022434;28;3606469;-72
2023/05/23 00:27:12;;;;;;;;;27.00;23.50;;;;;;;;2000864;28;2850270;-72
2023/05/23 00:28:24;;;;;;;;;26.40;24.40;;;;;;;;1982349;28;2852475;-72
2023/05/23 00:29:35;;;;;;;;;26.67;23.00;;;;;;;;1998985;28;3574564;-72
2023/05/23 00:30:50;;;;;;;;;27.00;25.20;;;;;;;;1980132;28;2843030;-72
2023/05/23 00:32:01;;;;;;;;;32.67;26.67;;;;;;;;1997429;28;3602298;-72
2023/05/23 00:33:15;;;;;;;;;28.60;26.20;;;;;;;;1993729;28;3573106;-72
2023/05/23 00:34:25;;;;;;;;;25.50;22.00;;;;;;;;1970901;28;2849196;-72
2023/05/23 00:35:38;;;;;;;;;30.57;26.14;;;;;;;;1996574;28;3589791;-72
2023/05/23 00:36:50;;;;;;;;;37.20;28.20;;;;;;;;1998307;28;3607823;-72
2023/05/23 00:38:06;;;;;;;;;28.63;24.75;;;;;;;;1992890;28;3597071;-72
2023/05/23 00:39:18;;;;;;;;;27.00;23.00;;;;;;;;1998698;28;3576295;-72
2023/05/23 00:40:29;;;;;;;;;30.00;25.00;;;;;;;;1976642;28;3588822;-72
2023/05/23 00:41:40;;;;;;;;;26.40;24.60;;;;;;;;1977540;28;2835989;-72
2023/05/23 00:42:52;;;;;;;;;29.00;25.67;;;;;;;;2003509;28;3592920;-72
2023/05/23 00:44:04;;;;;;;;;26.60;25.20;;;;;;;;1994040;28;3577312;-72
2023/05/23 00:45:16;;;;;;;;;32.67;21.67;;;;;;;;1977716;28;2868014;-72
2023/05/23 00:46:27;;;;;;;;;31.00;24.00;;;;;;;;1997286;28;2506508;-72
2023/05/23 00:47:39;;;;;;;;;31.60;28.00;;;;;;;;1997720;28;3607487;-72
2023/05/23 00:48:50;;;;;;;;;32.00;28.00;;;;;;;;1972247;28;2852293;-72
2023/05/23 00:50:02;;;;;;;;;29.60;24.80;;;;;;;;2001137;28;3576234;-72
2023/05/23 00:51:15;;;;;;;;;35.38;24.00;;;;;;;;1991399;28;3614774;-72
2023/05/23 00:52:26;;;;;;;;;27.40;25.00;;;;;;;;1979892;28;2838960;-72
2023/05/23 00:53:40;;;;;;;;;32.25;28.00;;;;;;;;2014662;28;3601293;-72
2023/05/23 00:54:52;;;;;;;;;26.00;22.67;;;;;;;;1989899;28;3586681;-72
2023/05/23 00:56:04;;;;;;;;;31.20;25.40;;;;;;;;1988276;28;3588730;-72
2023/05/23 00:57:15;;;;;;;;;31.40;26.40;;;;;;;;1975935;28;2847195;-72
2023/05/23 00:58:27;;;;;;;;;35.00;25.40;;;;;;;;2020280;28;3609617;-72
2023/05/23 00:59:39;;;;;;;;;24.60;20.40;;;;;;;;2000142;28;3577312;-72
2023/05/23 01:00:53;;;;;;;;;29.67;25.00;;;;;;;;1968601;28;3584623;-72
2023/05/23 01:02:03;;;;;;;;;30.50;21.50;;;;;;;;1975971;28;2860669;-72
2023/05/23 01:03:16;;;;;;;;;30.50;27.50;;;;;;;;1973505;28;2506581;-72
2023/05/23 01:04:28;;;;;;;;;29.33;25.33;;;;;;;;1960208;28;3589787;-72
2023/05/23 01:05:40;;;;;;;;;26.33;22.33;;;;;;;;1983198;28;3586726;-72
2023/05/23 01:06:55;;;;;;;;;19.40;17.40;;;;;;;;1988553;28;3564777;-72
2023/05/23 01:08:07;;;;;;;;;27.67;23.00;;;;;;;;1993353;28;3586685;-72
2023/05/23 01:09:19;;;;;;;;;26.00;22.00;;;;;;;;1973891;28;3586710;-72
2023/05/23 01:10:30;;;;;;;;;32.50;24.00;;;;;;;;1973221;28;2864840;-72
2023/05/23 01:11:53;;;;;;;;;27.40;23.40;;;;;;;;1986238;28;3591847;-72
2023/05/23 01:13:04;;;;;;;;;25.00;23.33;;;;;;;;1997061;28;3578341;-72
2023/05/23 01:14:21;;;;;;;;;19.80;16.80;;;;;;;;1985569;28;2831464;-72
2023/05/23 01:15:52;;;;;;;;;29.33;24.33;;;;;;;;1991338;28;3591895;-72
2023/05/23 01:17:10;;;;;;;;;25.00;20.00;;;;;;;;1969716;28;2833587;-72
2023/05/23 01:18:25;;;;;;;;;23.33;20.33;;;;;;;;1969504;28;3576273;-72
2023/05/23 01:19:39;;;;;;;;;26.67;22.33;;;;;;;;1977641;28;3588788;-72
2023/05/23 01:20:51;;;;;;;;;24.33;20.00;;;;;;;;1976941;28;3580441;-71
2023/05/23 01:22:09;;;;;;;;;26.20;22.00;;;;;;;;1996946;28;3590164;-72
2023/05/23 01:23:26;;;;;;;;;23.67;21.00;;;;;;;;1973811;28;3562716;-72
2023/05/23 01:24:48;;;;;;;;;32.00;27.00;;;;;;;;1976303;28;3582539;-72
2023/05/23 01:26:05;;;;;;;;;25.50;19.00;;;;;;;;1977066;28;2506501;-72
2023/05/23 01:27:29;;;;;;;;;23.00;19.00;;;;;;;;1978251;28;2834657;-72
2023/05/23 01:28:44;;;;;;;;;26.00;24.00;;;;;;;;1974638;28;2841980;-71
2023/05/23 01:29:56;;;;;;;;;22.33;20.00;;;;;;;;1960331;28;3565873;-72
2023/05/23 01:31:09;;;;;;;;;22.00;19.00;;;;;;;;1970477;28;2833614;-72
2023/05/23 01:32:21;;;;;;;;;24.50;20.50;;;;;;;;1977203;28;2848185;-72
2023/05/23 01:33:33;;;;;;;;;23.67;21.67;;;;;;;;1974336;28;3577315;-72
2023/05/23 01:34:46;;;;;;;;;23.67;21.33;;;;;;;;1973587;28;3577331;-72
2023/05/23 01:35:59;;;;;;;;;26.33;24.33;;;;;;;;1977024;28;3579431;-72
2023/05/23 01:37:13;;;;;;;;;25.33;23.00;;;;;;;;1973074;28;3575252;-72
2023/05/23 01:38:23;;;;;;;;;28.00;22.00;;;;;;;;1976625;28;2852695;-72
2023/05/23 01:39:36;;;;;;;;;25.57;23.14;;;;;;;;1994417;28;3580551;-72
2023/05/23 01:40:48;;;;;;;;;25.67;21.67;;;;;;;;1987989;28;3581529;-72
2023/05/23 01:41:59;;;;;;;;;27.20;21.40;;;;;;;;1983498;28;2854410;-72
2023/05/23 01:43:11;;;;;;;;;24.80;19.00;;;;;;;;2021592;28;3559632;-72
2023/05/23 01:44:25;;;;;;;;;28.25;24.38;;;;;;;;2014201;28;3594995;-72
2023/05/23 01:45:36;;;;;;;;;27.67;23.00;;;;;;;;1990804;28;3579430;-72
2023/05/23 01:46:48;;;;;;;;;22.80;21.00;;;;;;;;1998889;28;3564785;-72
2023/05/23 01:48:01;;;;;;;;;26.00;20.40;;;;;;;;2023114;28;3583537;-72
2023/05/23 01:49:13;;;;;;;;;25.00;20.00;;;;;;;;1974707;28;2841884;-72
2023/05/23 01:50:25;;;;;;;;;23.33;19.67;;;;;;;;1970734;28;3575212;-72
2023/05/23 01:51:37;;;;;;;;;26.60;24.40;;;;;;;;1984941;28;3582499;-72
2023/05/23 01:52:49;;;;;;;;;23.33;21.00;;;;;;;;1981909;28;3567300;-72
2023/05/23 01:54:00;;;;;;;;;20.67;17.67;;;;;;;;1970736;28;3564847;-72
2023/05/23 01:55:17;;;;;;;;;22.43;17.14;;;;;;;;2014831;28;3555433;-72
2023/05/23 01:56:29;;;;;;;;;26.00;23.67;;;;;;;;2000048;28;3593996;-72
2023/05/23 01:57:39;;;;;;;;;22.00;19.00;;;;;;;;1998856;28;2841960;-72
2023/05/23 01:58:51;;;;;;;;;23.00;21.40;;;;;;;;1991391;28;3577283;-72
2023/05/23 02:00:05;;;;;;;;;29.20;23.20;;;;;;;;2016118;28;3589786;-72
2023/05/23 02:01:16;;;;;;;;;22.33;19.67;;;;;;;;1967190;28;3568951;-72
2023/05/23 02:02:28;;;;;;;;;23.60;22.60;;;;;;;;1993528;28;3576258;-72
2023/05/23 02:03:40;;;;;;;;;22.40;22.20;;;;;;;;1984639;28;3571505;-72
2023/05/23 02:04:52;;;;;;;;;29.00;25.00;;;;;;;;1989006;28;3591914;-72
2023/05/23 02:06:04;;;;;;;;;22.67;20.33;;;;;;;;1976617;28;3577807;-72
2023/05/23 02:07:16;;;;;;;;;29.60;24.00;;;;;;;;1999473;28;3589791;-72
2023/05/23 02:08:28;;;;;;;;;27.40;21.20;;;;;;;;1985425;28;3584603;-72
2023/05/23 02:09:40;;;;;;;;;27.60;20.80;;;;;;;;2002690;28;3584607;-72
2023/05/23 02:10:52;;;;;;;;;27.40;22.80;;;;;;;;2004096;28;3573455;-72
2023/05/23 02:12:04;;;;;;;;;19.60;18.20;;;;;;;;1996042;28;3563727;-72
2023/05/23 02:13:16;;;;;;;;;28.80;23.40;;;;;;;;2017355;28;3598493;-72
2023/05/23 02:14:27;;;;;;;;;27.40;22.40;;;;;;;;1987242;28;2835703;-72
2023/05/23 02:15:37;;;;;;;;;21.00;18.50;;;;;;;;2002470;28;2824784;-72
2023/05/23 02:16:51;;;;;;;;;27.00;24.00;;;;;;;;2006637;28;3586682;-72
2023/05/23 02:18:03;;;;;;;;;28.33;23.33;;;;;;;;1975918;28;3592897;-72
2023/05/23 02:19:15;;;;;;;;;26.20;24.00;;;;;;;;2001840;28;3576226;-72
2023/05/23 02:20:26;;;;;;;;;27.00;23.80;;;;;;;;1998112;28;3586690;-72
2023/05/23 02:21:39;;;;;;;;;22.57;19.71;;;;;;;;2000363;28;3575248;-72
2023/05/23 02:22:52;;;;;;;;;23.57;20.29;;;;;;;;1990080;28;3570025;-72
2023/05/23 02:24:04;;;;;;;;;25.20;22.60;;;;;;;;1994559;28;3576255;-72
2023/05/23 02:25:16;;;;;;;;;25.60;20.60;;;;;;;;1995953;28;3582504;-72
2023/05/23 02:26:28;;;;;;;;;26.60;18.80;;;;;;;;1999018;28;3586120;-72
2023/05/23 02:27:40;;;;;;;;;22.00;17.67;;;;;;;;1990457;28;3567984;-72
2023/05/23 02:28:52;;;;;;;;;21.80;19.60;;;;;;;;2027875;28;3575196;-72
2023/05/23 02:30:04;;;;;;;;;28.00;22.60;;;;;;;;2002968;28;3589802;-72
2023/05/23 02:31:16;;;;;;;;;30.20;25.80;;;;;;;;1990153;28;3602291;-72
2023/05/23 02:32:28;;;;;;;;;24.00;20.33;;;;;;;;1990663;28;3577324;-72
2023/05/23 02:33:39;;;;;;;;;23.00;19.50;;;;;;;;1976993;28;2834668;-72
2023/05/23 02:34:50;;;;;;;;;25.20;21.40;;;;;;;;2001853;28;2838863;-72
2023/05/23 02:36:02;;;;;;;;;21.33;21.33;;;;;;;;2013317;28;3574152;-72
2023/05/23 02:37:14;;;;;;;;;24.67;21.33;;;;;;;;1982552;28;3576286;-72
2023/05/23 02:38:26;;;;;;;;;31.00;24.80;;;;;;;;1995617;28;3592975;-72
2023/05/23 02:39:37;;;;;;;;;24.80;21.20;;;;;;;;1995896;28;3577303;-72
2023/05/23 02:40:50;;;;;;;;;26.80;23.40;;;;;;;;2005738;28;3576263;-72
2023/05/23 02:42:01;;;;;;;;;27.50;24.00;;;;;;;;1973664;28;2506533;-72
2023/05/23 02:43:12;;;;;;;;;21.00;20.67;;;;;;;;1965363;28;3576231;-72
2023/05/23 02:44:24;;;;;;;;;31.40;26.20;;;;;;;;1994895;28;3590817;-72
2023/05/23 02:45:38;;;;;;;;;33.25;27.00;;;;;;;;1999892;28;3593941;-72
2023/05/23 02:46:48;;;;;;;;;29.00;24.00;;;;;;;;1991087;28;2852360;-72
2023/05/23 02:48:00;;;;;;;;;33.00;28.00;;;;;;;;2003285;28;3595022;-72
2023/05/23 02:49:12;;;;;;;;;29.00;26.20;;;;;;;;2002879;28;3595334;-72
2023/05/23 02:50:24;;;;;;;;;29.00;26.20;;;;;;;;2005693;28;3582500;-72
2023/05/23 02:51:36;;;;;;;;;29.80;23.40;;;;;;;;1998964;28;3593964;-72
2023/05/23 02:52:48;;;;;;;;;29.60;27.20;;;;;;;;1997132;28;3578426;-72
2023/05/23 02:54:00;;;;;;;;;31.60;26.80;;;;;;;;2004641;28;3590873;-72
2023/05/23 02:55:12;;;;;;;;;28.00;23.00;;;;;;;;2005951;28;3596028;-72
2023/05/23 02:56:26;;;;;;;;;33.88;28.38;;;;;;;;1997135;28;3610608;-72
2023/05/23 02:57:38;;;;;;;;;32.00;27.80;;;;;;;;1989614;28;3602347;-72
2023/05/23 02:58:52;;;;;;;;;31.25;27.13;;;;;;;;1995447;28;3599158;-72
2023/05/23 03:00:03;;;;;;;;;36.50;25.50;;;;;;;;1998599;28;2869038;-72
2023/05/23 03:01:13;;;;;;;;;32.00;25.50;;;;;;;;1969536;28;2845014;-72
2023/05/23 03:02:25;;;;;;;;;28.20;25.60;;;;;;;;1993048;28;3588039;-72
2023/05/23 03:03:37;;;;;;;;;31.80;27.80;;;;;;;;1991067;28;3604369;-72
2023/05/23 03:04:49;;;;;;;;;27.00;23.00;;;;;;;;1995948;28;3604382;-72
2023/05/23 03:06:02;;;;;;;;;30.20;24.40;;;;;;;;1988627;28;3582532;-72
2023/05/23 03:07:13;;;;;;;;;33.00;29.50;;;;;;;;1979440;28;2855441;-72
2023/05/23 03:08:24;;;;;;;;;21.00;18.00;;;;;;;;1980017;28;2815864;-72
2023/05/23 03:09:36;;;;;;;;;27.00;21.40;;;;;;;;2000541;28;3592413;-72
2023/05/23 03:10:47;;;;;;;;;30.40;24.00;;;;;;;;1987189;28;2843015;-72
2023/05/23 03:11:58;;;;;;;;;33.00;28.00;;;;;;;;2003171;28;3590886;-72
2023/05/23 03:13:10;;;;;;;;;29.40;26.60;;;;;;;;2001943;28;3589926;-72
2023/05/23 03:14:22;;;;;;;;;32.80;27.20;;;;;;;;2001358;28;3608947;-72
2023/05/23 03:15:35;;;;;;;;;30.29;26.57;;;;;;;;1999675;28;3582512;-71
2023/05/23 03:16:49;;;;;;;;;29.50;25.13;;;;;;;;1993592;28;3586654;-71
2023/05/23 03:17:59;;;;;;;;;27.00;25.00;;;;;;;;1990542;28;2853422;-72
2023/05/23 03:19:13;;;;;;;;;33.88;29.13;;;;;;;;1982794;28;3597131;-72
2023/05/23 03:20:24;;;;;;;;;30.67;26.00;;;;;;;;1992135;28;3608524;-72
2023/05/23 03:21:36;;;;;;;;;35.20;28.00;;;;;;;;2005339;28;3597071;-72
2023/05/23 03:22:48;;;;;;;;;28.40;22.20;;;;;;;;2000960;28;3583601;-72
2023/05/23 03:24:02;;;;;;;;;31.63;26.38;;;;;;;;1999279;28;3593965;-72
2023/05/23 03:25:13;;;;;;;;;33.50;26.00;;;;;;;;1999047;28;2506463;-72
2023/05/23 03:26:24;;;;;;;;;33.00;24.50;;;;;;;;1968127;28;2866939;-72
2023/05/23 03:27:36;;;;;;;;;32.20;25.60;;;;;;;;1984958;28;3591305;-72
2023/05/23 03:28:50;;;;;;;;;33.00;27.14;;;;;;;;2015263;28;3583530;-71
2023/05/23 03:30:00;;;;;;;;;31.50;25.50;;;;;;;;1976771;28;2847167;-72
2023/05/23 03:31:12;;;;;;;;;34.20;28.00;;;;;;;;1998511;28;3602275;-72
2023/05/23 03:32:25;;;;;;;;;28.71;22.71;;;;;;;;1992815;28;3591903;-72
2023/05/23 03:33:38;;;;;;;;;27.29;27.00;;;;;;;;1988919;28;3590845;-72
2023/05/23 03:34:50;;;;;;;;;27.00;23.00;;;;;;;;1996095;28;3596053;-72
2023/05/23 03:36:03;;;;;;;;;26.57;24.00;;;;;;;;1999280;28;3586139;-72
2023/05/23 03:37:13;;;;;;;;;31.80;28.00;;;;;;;;1982808;28;2846200;-71
2023/05/23 03:38:27;;;;;;;;;38.75;31.75;;;;;;;;2025142;28;3607522;-72
2023/05/23 03:39:39;;;;;;;;;24.67;22.00;;;;;;;;2000801;28;2846071;-72
2023/05/23 03:40:50;;;;;;;;;28.33;26.00;;;;;;;;1992391;28;3581513;-72
2023/05/23 03:42:02;;;;;;;;;36.00;29.60;;;;;;;;2001822;28;3612699;-71
2023/05/23 03:43:16;;;;;;;;;29.00;24.63;;;;;;;;1996747;28;3591894;-72
2023/05/23 03:44:26;;;;;;;;;34.00;29.50;;;;;;;;1989791;28;2866951;-72
2023/05/23 03:45:38;;;;;;;;;32.00;26.00;;;;;;;;1986877;28;3583533;-72
2023/05/23 03:46:50;;;;;;;;;35.20;29.00;;;;;;;;2016078;28;3607507;-72
2023/05/23 03:48:02;;;;;;;;;32.40;27.60;;;;;;;;1996901;28;3590868;-71
2023/05/23 03:49:14;;;;;;;;;36.00;27.00;;;;;;;;1990108;28;3615872;-72
2023/05/23 03:50:26;;;;;;;;;33.40;26.00;;;;;;;;2000157;28;3600259;-72
2023/05/23 03:51:38;;;;;;;;;34.80;27.20;;;;;;;;1992818;28;3606464;-71
2023/05/23 03:52:52;;;;;;;;;37.50;31.13;;;;;;;;2000050;28;3603328;-71
2023/05/23 03:54:02;;;;;;;;;31.50;23.50;;;;;;;;1999565;28;2864843;-71
2023/05/23 03:55:14;;;;;;;;;33.80;28.80;;;;;;;;2001329;28;3609581;-71
2023/05/23 03:56:26;;;;;;;;;40.20;31.60;;;;;;;;1999568;28;3613765;-71
2023/05/23 03:57:38;;;;;;;;;40.00;30.00;;;;;;;;1994969;28;3630422;-71
2023/05/23 03:58:51;;;;;;;;;24.14;21.86;;;;;;;;1992582;28;3596018;-72
2023/05/23 04:00:13;;;;;;;;;36.80;28.00;;;;;;;;1998223;28;3611673;-72
2023/05/23 04:01:23;;;;;;;;;28.00;23.00;;;;;;;;1975681;28;2849219;-72
2023/05/23 04:02:35;;;;;;;;;37.00;29.67;;;;;;;;1976781;28;3607484;-72
2023/05/23 04:03:49;;;;;;;;;37.25;30.25;;;;;;;;1995712;28;3614778;-72
2023/05/23 04:05:00;;;;;;;;;32.00;26.33;;;;;;;;1984871;28;3599212;-71
2023/05/23 04:06:11;;;;;;;;;35.00;27.50;;;;;;;;1984698;28;2506537;-71
2023/05/23 04:07:25;;;;;;;;;29.29;25.57;;;;;;;;1998620;28;3589823;-71
2023/05/23 04:08:35;;;;;;;;;35.00;27.00;;;;;;;;1975505;28;2875268;-71
2023/05/23 04:09:49;;;;;;;;;32.00;28.00;;;;;;;;1991018;28;3598438;-71
2023/05/23 04:11:00;;;;;;;;;32.67;26.00;;;;;;;;1989138;28;3597200;-71
2023/05/23 04:12:14;;;;;;;;;31.75;26.63;;;;;;;;1988261;28;3610644;-71
2023/05/23 04:13:26;;;;;;;;;31.00;26.80;;;;;;;;2002082;28;3586662;-72
2023/05/23 04:14:38;;;;;;;;;32.40;27.80;;;;;;;;1980062;28;3606448;-72
2023/05/23 04:15:51;;;;;;;;;31.00;26.40;;;;;;;;1993488;28;3596052;-72
2023/05/23 04:17:02;;;;;;;;;19.33;16.67;;;;;;;;1967098;28;3548170;-72
2023/05/23 04:18:16;;;;;;;;;33.40;27.20;;;;;;;;2018274;28;3600176;-72
2023/05/23 04:19:26;;;;;;;;;34.00;29.50;;;;;;;;1969776;28;2867914;-72
2023/05/23 04:20:38;;;;;;;;;33.40;29.00;;;;;;;;2002682;28;3612699;-71
2023/05/23 04:21:50;;;;;;;;;33.00;29.60;;;;;;;;2004791;28;3595003;-71
2023/05/23 04:23:02;;;;;;;;;36.00;29.60;;;;;;;;1994095;28;3609658;-71
2023/05/23 04:24:16;;;;;;;;;41.63;30.50;;;;;;;;1984913;28;3611657;-71
2023/05/23 04:25:27;;;;;;;;;35.67;31.00;;;;;;;;1989207;28;3587732;-71
2023/05/23 04:26:39;;;;;;;;;39.60;31.00;;;;;;;;2004269;28;3602283;-71
2023/05/23 04:27:53;;;;;;;;;28.40;24.40;;;;;;;;2005309;28;3579379;-71
2023/05/23 04:29:04;;;;;;;;;32.00;28.00;;;;;;;;1977594;28;2853367;-71
2023/05/23 04:30:17;;;;;;;;;32.33;26.67;;;;;;;;1973575;28;2866936;-72
2023/05/23 04:31:27;;;;;;;;;31.50;29.00;;;;;;;;1994239;28;2862725;-72
2023/05/23 04:32:39;;;;;;;;;28.80;27.60;;;;;;;;1994658;28;3593950;-72
2023/05/23 04:33:51;;;;;;;;;28.67;25.00;;;;;;;;1986094;28;3593998;-72
2023/05/23 04:35:03;;;;;;;;;34.60;30.40;;;;;;;;1994054;28;3611773;-71
2023/05/23 04:36:14;;;;;;;;;29.20;26.00;;;;;;;;1976860;28;2834629;-71
2023/05/23 04:37:26;;;;;;;;;29.67;26.00;;;;;;;;2008037;28;3591867;-71
2023/05/23 04:38:39;;;;;;;;;33.60;27.80;;;;;;;;1989665;28;3593942;-71
2023/05/23 04:39:51;;;;;;;;;33.00;24.67;;;;;;;;1975079;28;3585612;-71
2023/05/23 04:41:04;;;;;;;;;30.67;26.33;;;;;;;;1970865;28;3591949;-71
2023/05/23 04:42:16;;;;;;;;;33.67;26.67;;;;;;;;1971722;28;3586694;-71
2023/05/23 04:43:28;;;;;;;;;28.67;24.67;;;;;;;;1990525;28;3593962;-71
2023/05/23 04:44:41;;;;;;;;;33.63;29.25;;;;;;;;1995914;28;3618948;-71
2023/05/23 04:45:56;;;;;;;;;26.50;23.63;;;;;;;;1993926;28;3584599;-72
2023/05/23 04:47:07;;;;;;;;;33.50;25.50;;;;;;;;1991023;28;2855462;-72
2023/05/23 04:48:20;;;;;;;;;25.67;24.00;;;;;;;;1969820;28;2843967;-72
2023/05/23 04:49:33;;;;;;;;;28.50;26.00;;;;;;;;1992475;28;2838773;-71
2023/05/23 04:50:46;;;;;;;;;31.50;24.00;;;;;;;;1973108;28;2857504;-72
2023/05/23 04:51:56;;;;;;;;;28.00;22.00;;;;;;;;1969200;28;2846050;-71
2023/05/23 04:53:08;;;;;;;;;26.80;22.40;;;;;;;;1996342;28;3571046;-71
2023/05/23 04:54:20;;;;;;;;;23.80;19.20;;;;;;;;1994439;28;3573125;-71
2023/05/23 04:55:33;;;;;;;;;31.57;27.14;;;;;;;;1988974;28;3597182;-71
2023/05/23 04:56:44;;;;;;;;;28.20;25.40;;;;;;;;1984567;28;2846141;-71
2023/05/23 04:57:58;;;;;;;;;34.13;27.50;;;;;;;;2014830;28;3595074;-71
2023/05/23 04:59:10;;;;;;;;;24.00;21.50;;;;;;;;1988312;28;2838824;-71
2023/05/23 05:00:20;;;;;;;;;33.00;29.00;;;;;;;;1964277;28;2506529;-71
2023/05/23 05:01:33;;;;;;;;;35.00;31.00;;;;;;;;1995046;28;3603337;-72
2023/05/23 05:02:43;;;;;;;;;26.00;22.00;;;;;;;;1978486;28;2847096;-72
2023/05/23 05:03:56;;;;;;;;;19.43;13.43;;;;;;;;2000654;28;3518989;-72
2023/05/23 05:05:07;;;;;;;;;25.40;24.20;;;;;;;;2005452;28;2847171;-72
2023/05/23 05:06:20;;;;;;;;;28.00;23.33;;;;;;;;1999083;28;3589764;-72
2023/05/23 05:07:30;;;;;;;;;24.00;21.00;;;;;;;;1979911;28;2854393;-72
2023/05/23 05:08:44;;;;;;;;;30.88;25.75;;;;;;;;1992690;28;3596104;-72
2023/05/23 05:09:55;;;;;;;;;26.33;23.00;;;;;;;;1987446;28;3582922;-72
2023/05/23 05:11:07;;;;;;;;;32.60;24.80;;;;;;;;1984103;28;3615844;-72
2023/05/23 05:12:19;;;;;;;;;31.67;26.67;;;;;;;;1975945;28;3602394;-72
2023/05/23 05:13:30;;;;;;;;;26.20;24.00;;;;;;;;1983915;28;2845609;-72
2023/05/23 05:14:41;;;;;;;;;33.80;27.00;;;;;;;;2003716;28;3596048;-71
2023/05/23 05:15:54;;;;;;;;;29.29;23.71;;;;;;;;2014994;28;3588762;-72
2023/05/23 05:17:05;;;;;;;;;24.80;24.80;;;;;;;;1975153;28;2840986;-72
2023/05/23 05:18:17;;;;;;;;;27.60;26.00;;;;;;;;2018498;28;3588749;-72
2023/05/23 05:19:28;;;;;;;;;31.00;25.40;;;;;;;;2007780;28;2845089;-72
2023/05/23 05:20:39;;;;;;;;;30.67;26.67;;;;;;;;2000373;28;3600200;-72
2023/05/23 05:21:52;;;;;;;;;27.00;22.86;;;;;;;;1998885;28;3583521;-72
2023/05/23 05:23:04;;;;;;;;;30.40;24.40;;;;;;;;1997173;28;3591850;-72
2023/05/23 05:24:16;;;;;;;;;32.60;25.00;;;;;;;;2021537;28;3594991;-72
2023/05/23 05:25:30;;;;;;;;;24.00;22.60;;;;;;;;1986430;28;2841294;-72
2023/05/23 05:26:41;;;;;;;;;27.50;23.00;;;;;;;;1997083;28;2841006;-72
2023/05/23 05:27:53;;;;;;;;;30.00;25.67;;;;;;;;1978809;28;3590857;-72
2023/05/23 05:29:03;;;;;;;;;24.60;22.60;;;;;;;;1992107;28;2845144;-72
2023/05/23 05:30:15;;;;;;;;;26.80;24.80;;;;;;;;2005435;28;3581470;-72
2023/05/23 05:31:26;;;;;;;;;23.60;19.40;;;;;;;;2000171;28;2839873;-72
2023/05/23 05:32:40;;;;;;;;;34.25;25.75;;;;;;;;2012539;28;3592988;-72
2023/05/23 05:33:51;;;;;;;;;26.00;21.50;;;;;;;;1993910;28;2839883;-72
2023/05/23 05:35:03;;;;;;;;;23.60;19.20;;;;;;;;2001123;28;3581534;-72
2023/05/23 05:36:15;;;;;;;;;22.20;18.80;;;;;;;;2012406;28;3579918;-72
2023/05/23 05:37:27;;;;;;;;;28.60;23.60;;;;;;;;2017550;28;3585692;-72
2023/05/23 05:38:38;;;;;;;;;23.00;19.60;;;;;;;;1973062;28;2854424;-72
2023/05/23 05:39:49;;;;;;;;;24.60;22.80;;;;;;;;2016548;28;3585995;-72
2023/05/23 05:41:01;;;;;;;;;29.40;22.00;;;;;;;;2021229;28;3592968;-72
2023/05/23 05:42:14;;;;;;;;;24.14;20.00;;;;;;;;1993160;28;3577304;-72
2023/05/23 05:43:25;;;;;;;;;21.40;19.20;;;;;;;;1976292;28;2839917;-72
2023/05/23 05:44:36;;;;;;;;;23.60;21.40;;;;;;;;2001048;28;3576281;-72
2023/05/23 05:45:48;;;;;;;;;21.40;20.20;;;;;;;;2026788;28;3575214;-72
2023/05/23 05:47:01;;;;;;;;;23.57;18.29;;;;;;;;2014015;28;3581499;-72
2023/05/23 05:48:12;;;;;;;;;23.00;20.60;;;;;;;;1976527;28;2842000;-72
2023/05/23 05:49:23;;;;;;;;;23.33;22.00;;;;;;;;1993240;28;3566935;-72
2023/05/23 05:50:35;;;;;;;;;19.60;18.20;;;;;;;;1996915;28;3573455;-72
2023/05/23 05:51:47;;;;;;;;;24.60;23.00;;;;;;;;2028024;28;3588738;-72
2023/05/23 05:52:59;;;;;;;;;23.20;20.80;;;;;;;;1998979;28;3567977;-71
2023/05/23 05:54:12;;;;;;;;;25.00;18.43;;;;;;;;1996450;28;3589779;-71
2023/05/23 05:55:24;;;;;;;;;21.00;21.00;;;;;;;;2000851;28;3571023;-72
2023/05/23 05:56:36;;;;;;;;;23.20;22.20;;;;;;;;2014395;28;3575259;-71
2023/05/23 05:57:48;;;;;;;;;21.80;20.40;;;;;;;;1986197;28;3554350;-72
2023/05/23 05:59:00;;;;;;;;;21.00;19.00;;;;;;;;2023636;28;3572143;-72
2023/05/23 06:00:17;;;;;;;;;25.80;22.00;;;;;;;;2008080;28;3582870;-72
2023/05/23 06:01:28;;;;;;;;;20.50;18.00;;;;;;;;1979912;28;2832593;-72
2023/05/23 06:02:39;;;;;;;;;25.20;20.40;;;;;;;;1979823;28;2840962;-72
2023/05/23 06:03:50;;;;;;;;;18.00;17.00;;;;;;;;2001479;28;2830467;-72
2023/05/23 06:05:03;;;;;;;;;20.57;17.43;;;;;;;;1993664;28;3560646;-72
2023/05/23 06:06:14;;;;;;;;;19.67;16.33;;;;;;;;1971254;28;3559625;-72
2023/05/23 06:07:26;;;;;;;;;23.40;19.40;;;;;;;;2020462;28;3570038;-72
2023/05/23 06:08:38;;;;;;;;;24.20;19.80;;;;;;;;2004593;28;3581437;-72
2023/05/23 06:09:51;;;;;;;;;18.57;17.86;;;;;;;;2013580;28;3566907;-72
2023/05/23 06:11:02;;;;;;;;;21.00;18.80;;;;;;;;2002451;28;2830435;-71
2023/05/23 06:12:13;;;;;;;;;25.80;19.60;;;;;;;;1997182;28;3581553;-72
2023/05/23 06:13:25;;;;;;;;;22.60;20.20;;;;;;;;2008017;28;3560641;-72
2023/05/23 06:14:38;;;;;;;;;22.00;17.00;;;;;;;;2016458;28;3567937;-72
2023/05/23 06:15:50;;;;;;;;;18.67;18.00;;;;;;;;1981267;28;2830666;-72
2023/05/23 06:17:01;;;;;;;;;24.00;19.00;;;;;;;;2001104;28;2852353;-72
2023/05/23 06:18:12;;;;;;;;;19.80;19.40;;;;;;;;1978500;28;3565833;-72
2023/05/23 06:19:25;;;;;;;;;21.86;17.43;;;;;;;;2023682;28;3570011;-72
2023/05/23 06:20:37;;;;;;;;;20.40;18.80;;;;;;;;2027708;28;3564769;-72
2023/05/23 06:21:50;;;;;;;;;16.71;15.86;;;;;;;;2023696;28;3554408;-72
2023/05/23 06:23:04;;;;;;;;;22.71;18.57;;;;;;;;2022357;28;3558581;-72
2023/05/23 06:24:14;;;;;;;;;18.00;17.00;;;;;;;;2001650;28;2824256;-72
2023/05/23 06:25:26;;;;;;;;;23.60;17.40;;;;;;;;2001478;28;3575208;-71
2023/05/23 06:26:38;;;;;;;;;22.00;17.60;;;;;;;;2022692;28;3561685;-71
2023/05/23 06:27:51;;;;;;;;;19.57;17.00;;;;;;;;2017048;28;3566915;-71
2023/05/23 06:29:03;;;;;;;;;18.20;16.80;;;;;;;;2027335;28;3556512;-72
2023/05/23 06:30:15;;;;;;;;;18.33;15.67;;;;;;;;2011644;28;3554399;-72
2023/05/23 06:31:27;;;;;;;;;18.20;16.40;;;;;;;;2016203;28;3550707;-72
2023/05/23 06:32:40;;;;;;;;;19.00;17.29;;;;;;;;2010954;28;3565138;-72
2023/05/23 06:33:53;;;;;;;;;19.40;16.40;;;;;;;;1996027;28;3556498;-72
2023/05/23 06:35:04;;;;;;;;;17.33;15.00;;;;;;;;1998184;28;3547199;-72
2023/05/23 06:36:16;;;;;;;;;19.00;16.00;;;;;;;;2011136;28;3564819;-72
2023/05/23 06:37:28;;;;;;;;;18.80;15.00;;;;;;;;2029308;28;3560653;-72
2023/05/23 06:38:40;;;;;;;;;19.43;17.43;;;;;;;;2020392;28;3553370;-72
2023/05/23 06:39:53;;;;;;;;;20.43;16.00;;;;;;;;2019702;28;3553370;-72
2023/05/23 06:41:06;;;;;;;;;17.20;16.00;;;;;;;;2030846;28;3562752;-72
2023/05/23 06:42:17;;;;;;;;;13.67;12.33;;;;;;;;2008072;28;2810063;-72
2023/05/23 06:43:27;;;;;;;;;19.00;16.00;;;;;;;;1992724;28;2825310;-72
2023/05/23 06:44:39;;;;;;;;;21.80;17.80;;;;;;;;1999818;28;3572134;-72
2023/05/23 06:45:51;;;;;;;;;16.60;16.60;;;;;;;;2019912;28;3550240;-72
2023/05/23 06:47:04;;;;;;;;;20.86;16.57;;;;;;;;2022071;28;3569002;-72
2023/05/23 06:48:16;;;;;;;;;22.40;15.40;;;;;;;;2022598;28;3562714;-72